Groningen Airport Eelde

EHGG · Drente, Países Bajos

METAR pasados EHGG · Aeropuerto de Groningen Eelde

A continuación puedes ver los METAR de los últimos días. Selecciona un año para ver los METAR más antiguos, desde el año 2007 en adelante.

23 de marzo de 2023

Hora Código Tiempo Temp. Visibilidad Cielo nuboso Viento METAR/SPECI
02:25
M
11 °C 10 km+ 2.500 ft 220° 220° 13 kt METAR EHGG 230125Z AUTO 22013KT 9999 FEW015CB SCT022 BKN025 BKN029 11/09 Q0999 RERA
01:55
M
11 °C 10 km+ 2.200 ft 220° 220° 17 kt METAR EHGG 230055Z AUTO 22017KT 200V260 9999 -RA FEW012 FEW015CB SCT016 BKN022 11/10 Q0999 REDZRA
01:25
M
12 °C 10 km+ 1.500 ft 210° 210° 17 kt METAR EHGG 230025Z AUTO 21017KT 180V240 9999 -DZ FEW013/// BKN015/// OVC020/// 12/10 Q0999 REDZ
00:55
I
11 °C 10 km+ 700 ft 200° 200° 8 kt METAR EHGG 222355Z AUTO 20008KT 140V260 9999 +DZ SCT005 BKN007 BKN009 FEW015CB 11/10 Q0999
00:25
M
11 °C 7 km 1.500 ft 230° 230° 5 kt METAR EHGG 222325Z AUTO 23005KT 190V280 7000 SHRA BKN015CB BKN019 OVC023 11/10 Q1000

22 de marzo de 2023

Hora Código Tiempo Temp. Visibilidad Cielo nuboso Viento METAR/SPECI
23:55
I
11 °C 5 km 700 ft 200° 200° 6 kt METAR EHGG 222255Z AUTO 20006KT 170V240 5000 RA FEW005 BKN007 BKN008 BKN015CB 11/10 Q1000
23:25
M
11 °C 6 km 1.500 ft 210° 210° 13 kt METAR EHGG 222225Z AUTO 21013KT 180V240 6000 RA FEW010 BKN015CB BKN021 11/10 Q1001
22:55
M
11 °C 9 km 1.000 ft 210° 210° 12 kt METAR EHGG 222155Z AUTO 21012KT 180V250 9000 -RA FEW007 SCT008 BKN010 FEW015CB 11/10 Q1001 RERA TEMPO 7000 DZ BKN008
22:25
I
11 °C 7 km 900 ft 200° 200° 12 kt METAR EHGG 222125Z AUTO 20012KT 170V230 7000 SHRA FEW006 SCT007 BKN009 FEW015CB 11/10 Q1001 REDZ BECMG DZ
21:55
I
11 °C 9 km 800 ft 200° 200° 13 kt METAR EHGG 222055Z AUTO 20013KT 170V230 9000 -RA SCT006 BKN008 OVC009 11/10 Q1001 REDZRA BECMG 6000 DZ
21:25
I
11 °C 10 km+ 800 ft 190° 190° 12 kt METAR EHGG 222025Z AUTO 19012KT 160V220 9999 SCT006 BKN008 OVC009 11/10 Q1001 BECMG 6000 DZ
20:55
I
11 °C 5 km 800 ft 200° 200° 12 kt METAR EHGG 221955Z AUTO 20012KT 160V230 5000 +DZ FEW005/// SCT007/// BKN008/// 11/10 Q1002 NOSIG
20:25
I
11 °C 6 km 700 ft 200° 200° 12 kt METAR EHGG 221925Z AUTO 20012KT 170V230 6000 DZ FEW005 SCT006 BKN007 11/10 Q1002 BECMG 6000 -DZ
19:55
I
11 °C 7 km 800 ft 200° 200° 13 kt METAR EHGG 221855Z AUTO 20013KT 160V230 7000 DZ FEW006/// SCT007/// BKN008/// 11/10 Q1002 BECMG -DZ
19:25
I
11 °C 4,1 km 600 ft 200° 200° 14 kt METAR EHGG 221825Z AUTO 20014KT 4100 +DZ FEW005 BKN006 BKN008 11/10 Q1002 BECMG -DZ
18:55
I
10 °C 3,2 km 600 ft 190° 190° 13 kt METAR EHGG 221755Z AUTO 19013KT 160V230 3200 DZ SCT005 BKN006 OVC008 10/10 Q1002 NOSIG
18:25
I
10 °C 5 km 700 ft 190° 190° 14 kt METAR EHGG 221725Z AUTO 19014KT 170V230 5000 SCT005 BKN007 OVC008 10/10 Q1002 TEMPO 4000 -DZRA
17:55
I
11 °C 10 km+ 700 ft 200° 200° 13 kt METAR EHGG 221655Z AUTO 20013KT 160V230 9999 SCT006 BKN007 OVC009 11/10 Q1002 TEMPO 7000
17:25
M
11 °C 10 km+ 1.000 ft 200° 200° 14 kt METAR EHGG 221625Z AUTO 20014KT 170V230 9999 FEW008 BKN010 BKN013 11/10 Q1003 TEMPO 7000 BKN008
16:55
M
11 °C 10 km+ 1.000 ft 200° 200° 14 kt METAR EHGG 221555Z AUTO 20014KT 9999 SCT009 BKN010 OVC012 11/09 Q1003 BECMG 7000 BKN008
16:25
M
10 °C 9 km 1.000 ft 210° 210° 14 kt METAR EHGG 221525Z AUTO 21014KT 170V230 9000 FEW007 SCT008 OVC010 10/10 Q1003 BECMG 7000 BKN008
15:55
I
10 °C 6 km 900 ft 210° 210° 15 kt METAR EHGG 221455Z AUTO 21015KT 6000 FEW006 SCT007 BKN009 10/10 Q1003 NOSIG
15:25
I
10 °C 3,7 km 800 ft 210° 210° 13 kt METAR EHGG 221425Z AUTO 21013KT 180V250 3700 DZ FEW005 SCT007 BKN008 10/10 Q1003 TEMPO 4000
14:55
I
10 °C 2,6 km 700 ft 210° 210° 14 kt METAR EHGG 221355Z AUTO 21014KT 180V240 2600 BR FEW005 BKN007 BKN008 10/09 Q1003 REDZ TEMPO 7000 -DZRA
14:25
I
10 °C 2,5 km 800 ft 210° 210° 14 kt METAR EHGG 221325Z AUTO 21014KT 170V240 2500 DZ FEW005 SCT007 BKN008 10/09 Q1003 BECMG 7000 BKN006
13:55
I
10 °C 3,2 km 1.500 ft 220° 220° 18 kt METAR EHGG 221255Z AUTO 22018KT 3200 -RA FEW006 SCT012 OVC015 10/09 Q1003 REDZRA BECMG 7000 BKN006
13:25
M
11 °C 10 km+ 1.400 ft 210° 210° 18 kt METAR EHGG 221225Z AUTO 21018KT 9999 BKN014/// OVC016/// 11/09 Q1003 TEMPO 7000 -DZRA
12:55
M
11 °C 10 km+ 1.500 ft 210° 210° 17 kt METAR EHGG 221155Z AUTO 21017KT 180V240 9999 -DZ BKN015 OVC019 11/09 Q1003 BECMG 7000 -RADZ BKN012
12:25
M
10 °C 10 km+ 1.500 ft 210° 210° 16 kt METAR EHGG 221125Z AUTO 21016KT 180V250 9999 -RA BKN015 OVC019 10/09 Q1003 REDZRA BECMG 7000 -RADZ BKN012
11:55
M
10 °C 10 km+ 1.900 ft 210° 210° 16 kt METAR EHGG 221055Z AUTO 21016KT 180V240 9999 DZ FEW013 SCT016 OVC019 10/09 Q1003 BECMG 7000 -RADZ BKN012
11:25
M
11 °C 8 km 1.500 ft 210° 210° 19 kt METAR EHGG 221025Z AUTO 21019KT 180V240 8000 BKN015 OVC019 11/08 Q1003 BECMG 7000 -RADZ BKN012
10:55
M
11 °C 10 km+ 2.300 ft 210° 210° 18 kt METAR EHGG 220955Z AUTO 21018KT 170V230 9999 -RADZ SCT019/// BKN023/// OVC027/// 11/08 Q1003 BECMG 7000 -RADZ BKN012
10:25
M
11 °C 10 km+ 2.100 ft 210° 210° 18 kt METAR EHGG 220925Z AUTO 21018KT 170V230 9999 SCT017 OVC021 11/08 Q1003 NOSIG
09:55
M
11 °C 10 km+ 1.700 ft 210° 210° 17 kt METAR EHGG 220855Z AUTO 21017KT 170V230 9999 BKN017 OVC020 11/08 Q1003 NOSIG
09:25
M
11 °C 10 km+ 1.700 ft 200° 200° 15 kt METAR EHGG 220825Z AUTO 20015KT 170V230 9999 BKN017 OVC020 11/08 Q1003 NOSIG
08:55
M
11 °C 10 km+ 1.600 ft 200° 200° 15 kt METAR EHGG 220755Z AUTO 20015KT 180V240 9999 BKN016 OVC019 11/08 Q1003 NOSIG
08:25
M
11 °C 10 km+ 1.800 ft 200° 200° 12 kt METAR EHGG 220725Z AUTO 20012KT 170V230 9999 SCT015 BKN018 BKN022 11/08 Q1003 NOSIG
07:55
V
10 °C 10 km+ - 200° 200° 12 kt METAR EHGG 220655Z AUTO 20012KT 160V220 9999 NSC 10/08 Q1003 NOSIG
07:25
V
10 °C 10 km+ - 200° 200° 12 kt METAR EHGG 220625Z AUTO 20012KT 170V230 9999 SCT040 10/08 Q1004 NOSIG
06:55
V
10 °C 10 km+ - 200° 200° 14 kt METAR EHGG 220555Z AUTO 20014KT 170V240 9999 FEW014 10/08 Q1004 NOSIG
06:25
V
10 °C 10 km+ - 190° 190° 12 kt METAR EHGG 220525Z AUTO 19012KT 160V220 9999 NSC 10/07 Q1004 NOSIG
05:55
V
10 °C 10 km+ - 190° 190° 12 kt METAR EHGG 220455Z AUTO 19012KT 160V220 9999 NSC 10/07 Q1004
05:25
V
10 °C 10 km+ - 190° 190° 10 kt METAR EHGG 220425Z AUTO 19010KT 170V230 9999 NSC 10/07 Q1004
04:55
V
10 °C 10 km+ 4.800 ft 200° 200° 9 kt METAR EHGG 220355Z AUTO 20009KT 9999 FEW038 SCT042 OVC048 10/07 Q1005
04:25
V
9 °C 10 km+ 3.100 ft 200° 200° 10 kt METAR EHGG 220325Z AUTO 20010KT 9999 BKN031 OVC036 09/07 Q1005
03:55
V
9 °C 10 km+ 4.000 ft 200° 200° 10 kt METAR EHGG 220255Z AUTO 20010KT 9999 FEW029 SCT034 BKN040 09/07 Q1005
03:25
V
9 °C 10 km+ - 210° 210° 11 kt METAR EHGG 220225Z AUTO 21011KT 9999 FEW038 09/07 Q1006
02:55
V
9 °C 10 km+ - 210° 210° 11 kt METAR EHGG 220155Z AUTO 21011KT 9999 NSC 09/07 Q1006
02:25
V
9 °C 10 km+ - 210° 210° 11 kt METAR EHGG 220125Z AUTO 21011KT 9999 NSC 09/08 Q1006
01:55
V
10 °C 10 km+ - 210° 210° 10 kt METAR EHGG 220055Z AUTO 21010KT 180V240 9999 SCT046 10/08 Q1006
01:25
M
10 °C 10 km+ 1.600 ft 220° 220° 14 kt METAR EHGG 220025Z AUTO 22014KT 9999 BKN016/// OVC019/// 10/08 Q1007
00:55
M
10 °C 10 km+ 1.900 ft 220° 220° 15 kt METAR EHGG 212355Z AUTO 22015KT 190V250 9999 SCT016 BKN019 BKN026 10/08 Q1007
00:25
M
10 °C 10 km+ 1.600 ft 200° 200° 10 kt METAR EHGG 212325Z AUTO 20010KT 9999 FEW013 BKN016 BKN019 10/08 Q1007

21 de marzo de 2023

Hora Código Tiempo Temp. Visibilidad Cielo nuboso Viento METAR/SPECI
23:55
M
10 °C 10 km+ 2.300 ft 200° 200° 9 kt METAR EHGG 212255Z AUTO 20009KT 170V230 9999 FEW014 SCT017 BKN023 10/08 Q1007
23:25
V
9 °C 10 km+ - 200° 200° 11 kt METAR EHGG 212225Z AUTO 20011KT 9999 FEW020 09/08 Q1007
22:55
V
10 °C 10 km+ 3.900 ft 210° 210° 11 kt METAR EHGG 212155Z AUTO 21011KT 180V240 9999 OVC039 10/08 Q1008 NOSIG
22:25
V
9 °C 10 km+ - 210° 210° 10 kt METAR EHGG 212125Z AUTO 21010KT 9999 NSC 09/08 Q1008 NOSIG
21:55
V
9 °C 10 km+ - 210° 210° 9 kt METAR EHGG 212055Z AUTO 21009KT 9999 SCT049 09/08 Q1008 NOSIG
21:25
M
10 °C 10 km+ 2.500 ft 210° 210° 10 kt METAR EHGG 212025Z AUTO 21010KT 170V230 9999 SCT022 BKN025 BKN029 10/08 Q1008 NOSIG
20:55
V
10 °C 10 km+ - 200° 200° 10 kt METAR EHGG 211955Z AUTO 20010KT 170V230 9999 NCD 10/08 Q1008 NOSIG
20:25
V
10 °C 9 km 4.400 ft 190° 190° 8 kt METAR EHGG 211925Z AUTO 19008KT 150V220 9000 BKN044 10/09 Q1008 NOSIG
19:55
V
10 °C 9 km 4.400 ft 200° 200° 7 kt METAR EHGG 211855Z AUTO 20007KT 170V230 9000 FEW021 BKN044 BKN048 10/09 Q1009 NOSIG
19:25
V
10 °C 10 km+ 3.900 ft 210° 210° 8 kt METAR EHGG 211825Z AUTO 21008KT 9999 FEW008 SCT033 BKN039 10/09 Q1009 REDZ NOSIG
18:55
M
11 °C 10 km+ 2.100 ft 220° 220° 9 kt METAR EHGG 211755Z AUTO 22009KT 190V250 9999 -RA FEW016 BKN021 BKN025 11/09 Q1009 NOSIG
18:25
M
11 °C 10 km+ 1.900 ft 220° 220° 11 kt METAR EHGG 211725Z AUTO 22011KT 9999 OVC019 11/09 Q1009 TEMPO 7000 BKN012
17:55
M
11 °C 9 km 2.000 ft 240° 240° 14 kt METAR EHGG 211655Z AUTO 24014KT 200V270 9000 -DZ FEW017 BKN020 OVC024 11/09 Q1009 REDZ TEMPO 4000 BKN012
17:25
M
12 °C 10 km+ 2.300 ft 220° 220° 11 kt METAR EHGG 211625Z AUTO 22011KT 9999 OVC023 12/08 Q1009 TEMPO 5000 DZ BKN012
16:55
M
12 °C 10 km+ 2.500 ft 220° 220° 15 kt METAR EHGG 211555Z AUTO 22015KT 9999 FEW021 OVC025 12/08 Q1009 NOSIG
16:25
M
12 °C 10 km+ 2.800 ft 210° 210° 14 kt METAR EHGG 211525Z AUTO 21014KT 9999 FEW024 OVC028 12/08 Q1009 NOSIG
15:55
M
12 °C 10 km+ 2.700 ft 210° 210° 12 kt METAR EHGG 211455Z AUTO 21012KT 170V240 9999 SCT020 SCT023 BKN027 12/09 Q1009 NOSIG
15:25
V
12 °C 10 km+ 3.600 ft 200° 200° 11 kt METAR EHGG 211425Z AUTO 20011KT 170V230 9999 FEW018 SCT030 BKN036 12/09 Q1009 NOSIG
14:55
V
12 °C 10 km+ 3.400 ft 200° 200° 13 kt METAR EHGG 211355Z AUTO 20013KT 170V240 9999 SCT015 SCT021 BKN034 12/09 Q1010 NOSIG
14:25
M
12 °C 10 km+ 1.600 ft 200° 200° 8 kt METAR EHGG 211325Z AUTO 20008KT 170V240 9999 FEW014 BKN016 BKN020 12/09 Q1010 NOSIG
13:55
M
11 °C 10 km+ 1.500 ft 200° 200° 11 kt METAR EHGG 211255Z AUTO 20011KT 170V230 9999 BKN015 OVC019 11/09 Q1010 NOSIG
13:25
M
11 °C 10 km+ 1.500 ft 200° 200° 11 kt METAR EHGG 211225Z AUTO 20011KT 170V230 9999 FEW012/// BKN015/// BKN021/// 11/09 Q1011 NOSIG
12:55
M
11 °C 10 km+ 1.300 ft 190° 190° 9 kt METAR EHGG 211155Z AUTO 19009KT 150V230 9999 FEW009/// SCT011/// BKN013/// 11/09 Q1011 NOSIG
12:25
V
11 °C 10 km+ - 190° 190° 10 kt METAR EHGG 211125Z AUTO 19010KT 150V220 9999 FEW008/// SCT011/// 11/10 Q1011 NOSIG
11:55
V
10 °C 9 km 4.300 ft 200° 200° 10 kt METAR EHGG 211055Z AUTO 20010KT 9000 -DZ FEW007/// BKN043/// OVC049/// 10/09 Q1011 REDZ BECMG 9999 NSW
11:25
M
9 °C 6 km - 200° 200° 11 kt METAR EHGG 211025Z AUTO 20011KT 170V230 6000 -RA FEW007/// SCT010/// 09/09 Q1012 BECMG 9999 NSW
10:55
I
10 °C 7 km 800 ft 200° 200° 10 kt METAR EHGG 210955Z AUTO 20010KT 160V230 7000 -RA FEW006/// SCT007/// BKN008/// 10/09 Q1012 REDZRA BECMG 9999 RA BKN030
10:25
I
10 °C 7 km 800 ft 210° 210° 10 kt METAR EHGG 210925Z AUTO 21010KT 7000 +DZ FEW006/// SCT007/// BKN008/// 10/09 Q1012 BECMG 9999 RA BKN030
09:55
I
9 °C 7 km 600 ft 210° 210° 10 kt METAR EHGG 210855Z AUTO 21010KT 7000 +DZ SCT005/// BKN006/// BKN007/// 09/09 Q1012 BECMG 9999 RA BKN030
09:25
I
10 °C 4 km 600 ft 210° 210° 9 kt METAR EHGG 210825Z AUTO 21009KT 4000 +DZ FEW003 SCT005 BKN006 10/09 Q1012 BECMG 6000 -DZ
08:55
I
10 °C 3,5 km 500 ft 210° 210° 9 kt METAR EHGG 210755Z AUTO 21009KT 180V240 3500 BR SCT004 BKN005 BKN006 10/09 Q1012 REDZ BECMG 6000 -DZ
08:25
L
9 °C 2,6 km 400 ft 210° 210° 9 kt METAR EHGG 210725Z AUTO 21009KT 2600 DZ SCT003 BKN004 BKN006 09/09 Q1012 BECMG 4000 BKN006
07:55
L
9 °C 1,9 km 400 ft 210° 210° 8 kt METAR EHGG 210655Z AUTO 21008KT 1900 DZ SCT003 OVC004 09/09 Q1012 BECMG 4000 BKN006
07:25
L
9 °C 2,7 km 400 ft 200° 200° 7 kt METAR EHGG 210625Z AUTO 20007KT 2700 +DZ FEW003 BKN004 OVC005 09/09 Q1012 BECMG BKN003
06:55
L
9 °C 2,8 km 300 ft 200° 200° 8 kt METAR EHGG 210555Z AUTO 20008KT 2800 -RADZ BKN003 BKN004 FEW015CB 09/09 Q1012 BECMG 3000
06:25
L
9 °C 2,3 km 300 ft 210° 210° 7 kt METAR EHGG 210525Z AUTO 21007KT 2300 DZ BKN003 BKN004 OVC005 09/09 Q1012 BECMG 3000
05:55
L
9 °C 3,4 km 400 ft 210° 210° 8 kt METAR EHGG 210455Z AUTO 21008KT 3400 -RA FEW003 BKN004 OVC005 09/09 Q1012
05:25
I
9 °C 6 km 500 ft 210° 210° 8 kt METAR EHGG 210425Z AUTO 21008KT 6000 SCT004 OVC005 09/09 Q1013
04:55
I
9 °C 6 km 500 ft 210° 210° 9 kt METAR EHGG 210355Z AUTO 21009KT 6000 BKN005 OVC006 09/09 Q1013
04:25
L
9 °C 3,8 km 400 ft 220° 220° 8 kt METAR EHGG 210325Z AUTO 22008KT 3800 BR BKN004 OVC005 09/09 Q1013
03:55
I
9 °C 4,5 km 500 ft 220° 220° 8 kt METAR EHGG 210255Z AUTO 22008KT 4500 BR SCT004 OVC005 09/09 Q1013
03:25
L
9 °C 2,5 km 300 ft 230° 230° 9 kt METAR EHGG 210225Z AUTO 23009KT 2500 BR BKN003 OVC004 09/09 Q1013
02:55
L
9 °C 3,1 km 300 ft 230° 230° 9 kt METAR EHGG 210155Z AUTO 23009KT 3100 BR BKN003 OVC004 09/09 Q1014
02:25
L
9 °C 1,8 km 200 ft 230° 230° 10 kt METAR EHGG 210125Z AUTO 23010KT 1800 BR SCT000 OVC002 09/09 Q1014
01:55
L
9 °C 2,2 km 100 ft 230° 230° 10 kt METAR EHGG 210055Z AUTO 23010KT 2200 BR BKN001 OVC002 09/09 Q1014
01:25
L
9 °C 2,2 km 300 ft 220° 220° 8 kt METAR EHGG 210025Z AUTO 22008KT 2200 BR FEW002/// OVC003/// 09/09 Q1014
00:55
L
9 °C 2,4 km 300 ft 230° 230° 7 kt METAR EHGG 202355Z AUTO 23007KT 2400 BR BKN003 OVC004 09/09 Q1014
00:25
L
9 °C 2,8 km 300 ft 230° 230° 8 kt METAR EHGG 202325Z AUTO 23008KT 2800 BR BKN003 OVC004 09/09 Q1014

20 de marzo de 2023

Hora Código Tiempo Temp. Visibilidad Cielo nuboso Viento METAR/SPECI
23:55
L
9 °C 3,6 km 300 ft 230° 230° 9 kt METAR EHGG 202255Z AUTO 23009KT 3600 BR BKN003 OVC004 09/09 Q1015
23:25
L
9 °C 4,3 km 300 ft 230° 230° 8 kt METAR EHGG 202225Z AUTO 23008KT 4300 BR BKN003 OVC005 09/08 Q1015
22:55
L
9 °C 2,8 km 400 ft 230° 230° 9 kt METAR EHGG 202155Z AUTO 23009KT 2800 BR SCT003 BKN004 OVC005 09/08 Q1015 REDZ
22:25
L
9 °C 2,3 km 400 ft 220° 220° 8 kt METAR EHGG 202125Z AUTO 22008KT 2300 DZ FEW003 BKN004 OVC005 09/08 Q1015 TEMPO BKN003
21:55
L
9 °C 2 km 200 ft 220° 220° 8 kt METAR EHGG 202055Z AUTO 22008KT 190V250 2000 DZ BKN002 OVC004 09/08 Q1015 TEMPO BKN003
21:25
L
8 °C 2,1 km 300 ft 210° 210° 8 kt METAR EHGG 202025Z AUTO 21008KT 2100 DZ BKN003 OVC004 08/08 Q1015 NOSIG
20:55
L
8 °C 2,2 km 400 ft 210° 210° 8 kt METAR EHGG 201955Z AUTO 21008KT 2200 DZ SCT003 BKN004 OVC005 08/08 Q1015 NOSIG
20:25
L
8 °C 2 km 400 ft 220° 220° 8 kt METAR EHGG 201925Z AUTO 22008KT 2000 -RA SCT003 OVC004 08/08 Q1015 REDZRA NOSIG
19:55
L
8 °C 2,1 km 400 ft 210° 210° 8 kt METAR EHGG 201855Z AUTO 21008KT 2100 +DZ FEW002 BKN004 BKN005 08/08 Q1015 NOSIG
19:25
L
8 °C 2,6 km 400 ft 220° 220° 8 kt METAR EHGG 201825Z AUTO 22008KT 2600 -RADZ SCT003 BKN004 OVC005 08/08 Q1015 NOSIG
18:55
I
8 °C 2,5 km 500 ft 220° 220° 8 kt METAR EHGG 201755Z AUTO 22008KT 180V240 2500 DZ SCT004/// BKN005/// OVC006/// 08/08 Q1015 TEMPO BKN004
18:25
L
8 °C 2,3 km 400 ft 210° 210° 10 kt METAR EHGG 201725Z AUTO 21010KT 2300 +DZ SCT003 BKN004 OVC005 08/08 Q1015 TEMPO BKN006
17:55
L
8 °C 2,3 km 400 ft 210° 210° 9 kt METAR EHGG 201655Z AUTO 21009KT 2300 +DZ SCT003 BKN004 OVC006 08/08 Q1015 TEMPO BKN006
17:25
I
8 °C 2,3 km 500 ft 210° 210° 9 kt METAR EHGG 201625Z AUTO 21009KT 2300 +DZ SCT004 BKN005 OVC006 08/08 Q1015 TEMPO BKN004
16:55
I
8 °C 6 km 600 ft 210° 210° 10 kt METAR EHGG 201555Z AUTO 21010KT 170V230 6000 SCT005 BKN006 OVC007 08/08 Q1015 TEMPO 3000 -DZ BKN004
16:25
I
8 °C 5 km 600 ft 210° 210° 11 kt METAR EHGG 201525Z AUTO 21011KT 170V240 5000 FEW004 BKN006 BKN007 08/07 Q1015 TEMPO 3000 -DZ BKN004
15:55
I
8 °C 2,6 km 500 ft 210° 210° 11 kt METAR EHGG 201455Z AUTO 21011KT 170V230 2600 BR SCT004 BKN005 BKN007 08/07 Q1015 TEMPO -DZRA BKN004
15:25
I
8 °C 3,2 km 700 ft 210° 210° 12 kt METAR EHGG 201425Z AUTO 21012KT 180V240 3200 BR FEW005 SCT006 BKN007 08/07 Q1016 REDZ BECMG -DZRA BKN004
14:55
I
8 °C 3,7 km 600 ft 210° 210° 12 kt METAR EHGG 201355Z AUTO 21012KT 3700 BR FEW005 BKN006 BKN008 08/07 Q1016 BECMG 2500 -DZRA BKN003
14:25
I
8 °C 3,9 km 1.200 ft 220° 220° 12 kt METAR EHGG 201325Z AUTO 22012KT 180V240 3900 BR FEW008 SCT009 BKN012 08/07 Q1016 BECMG 2500 -DZRA BKN005
13:55
M
9 °C 10 km+ 1.500 ft 220° 220° 14 kt METAR EHGG 201255Z AUTO 22014KT 190V250 9999 BKN015 BKN018 OVC021 09/06 Q1016 BECMG 4000 -DZRA BKN008
13:25
M
9 °C 10 km+ 2.300 ft 230° 230° 16 kt METAR EHGG 201225Z AUTO 23016KT 9999 SCT017 BKN023 BKN027 09/05 Q1016 BECMG 4000 -DZRA BKN008
12:55
M
9 °C 10 km+ 2.100 ft 230° 230° 14 kt METAR EHGG 201155Z AUTO 23014KT 9999 SCT018 BKN021 OVC025 09/05 Q1016 BECMG 4000 -DZRA BKN008
12:25
M
10 °C 10 km+ 1.900 ft 230° 230° 14 kt METAR EHGG 201125Z AUTO 23014KT 9999 BKN019 OVC022 10/05 Q1017 BECMG 4000 -DZRA BKN012
11:55
M
10 °C 10 km+ 1.800 ft 250° 250° 13 kt METAR EHGG 201055Z AUTO 25013KT 210V280 9999 BKN018 OVC021 10/05 Q1016 NOSIG
11:25
M
10 °C 10 km+ 1.900 ft 230° 230° 13 kt METAR EHGG 201025Z AUTO 23013KT 200V270 9999 BKN019/// BKN024/// BKN038/// 10/06 Q1017 NOSIG
10:55
V
10 °C 10 km+ 3.900 ft 240° 240° 12 kt METAR EHGG 200955Z AUTO 24012KT 210V270 9999 FEW022 OVC039 10/05 Q1016 NOSIG
10:25
V
9 °C 10 km+ 3.700 ft 220° 220° 10 kt METAR EHGG 200925Z AUTO 22010KT 9999 BKN037 OVC047 09/05 Q1016 NOSIG
09:55
V
9 °C 10 km+ 4.800 ft 220° 220° 12 kt METAR EHGG 200855Z AUTO 22012KT 190V250 9999 SCT044 BKN048 09/05 Q1017 NOSIG
09:25
V
9 °C 10 km+ - 230° 230° 10 kt METAR EHGG 200825Z AUTO 23010KT 9999 NSC 09/05 Q1017 NOSIG
08:55
V
8 °C 10 km+ 4.200 ft 230° 230° 10 kt METAR EHGG 200755Z AUTO 23010KT 9999 BKN042 08/05 Q1017 NOSIG

Nosotros y terceros seguimos tu comportamiento en Internet en nuestro sitio web con cookies. Si continúas, asumimos que estás de acuerdo con nuestra Política de cookies.